CFG37ML EVRA-EDDH
Flight info
| Callsign | CFG37ML |
|---|---|
| Flight time | 1h 39m |
| Altitude | 38000 |
| Route | VALED DCT ADAXA DCT NINTA DCT BAGOS N850 BOGMU BOGMU3P |
| Aircraft | A320/M-SDE3FGHIRWY/LB1 |
Departure
| Time | 2026-04-26 16:10 |
|---|---|
| Airport | Riga International Airport (EVRA) |
Arrival
| Time | 2026-04-26 17:49 |
|---|---|
| Airport | Hamburg Helmut Schmidt Airport (EDDH) |
| Time | Latitude | Longitude | Altitude | Speed | Heading |
|---|---|---|---|---|---|
| 2026-04-26 15:36 | 56.92288 | 23.97747 | 44 ft | 0 kts | 185° |
| 2026-04-26 15:57 | 56.92298 | 23.97749 | 43 ft | 4 kts | 185° |
| 2026-04-26 15:57 | 56.92316 | 23.97752 | 44 ft | 4 kts | 185° |
| 2026-04-26 15:58 | 56.92341 | 23.97765 | 44 ft | 4 kts | 249° |
| 2026-04-26 15:58 | 56.92344 | 23.97804 | 44 ft | 1 kts | 275° |
| 2026-04-26 15:58 | 56.92344 | 23.97805 | 44 ft | 0 kts | 275° |
| 2026-04-26 16:01 | 56.92344 | 23.97791 | 44 ft | 3 kts | 275° |
| 2026-04-26 16:01 | 56.92347 | 23.97729 | 44 ft | 6 kts | 275° |
| 2026-04-26 16:02 | 56.92352 | 23.97631 | 44 ft | 9 kts | 275° |
| 2026-04-26 16:02 | 56.92338 | 23.97504 | 44 ft | 12 kts | 216° |
| 2026-04-26 16:02 | 56.92253 | 23.97480 | 43 ft | 12 kts | 185° |
| 2026-04-26 16:02 | 56.92198 | 23.97472 | 44 ft | 12 kts | 185° |
| 2026-04-26 16:03 | 56.92099 | 23.97456 | 44 ft | 10 kts | 185° |
| 2026-04-26 16:03 | 56.92035 | 23.97446 | 44 ft | 9 kts | 185° |
| 2026-04-26 16:03 | 56.91958 | 23.97437 | 44 ft | 14 kts | 181° |
| 2026-04-26 16:03 | 56.91842 | 23.97428 | 44 ft | 20 kts | 185° |
| 2026-04-26 16:04 | 56.91690 | 23.97399 | 41 ft | 23 kts | 186° |
| 2026-04-26 16:04 | 56.91522 | 23.97373 | 44 ft | 25 kts | 185° |
| 2026-04-26 16:04 | 56.91342 | 23.97340 | 44 ft | 27 kts | 184° |
| 2026-04-26 16:04 | 56.91150 | 23.97308 | 44 ft | 28 kts | 186° |
| 2026-04-26 16:05 | 56.90984 | 23.97259 | 41 ft | 22 kts | 212° |
| 2026-04-26 16:05 | 56.90844 | 23.97166 | 44 ft | 22 kts | 182° |
| 2026-04-26 16:05 | 56.90703 | 23.97138 | 44 ft | 18 kts | 195° |
| 2026-04-26 16:05 | 56.90650 | 23.97037 | 44 ft | 0 kts | 253° |
| 2026-04-26 16:06 | 56.90650 | 23.97034 | 44 ft | 2 kts | 254° |
| 2026-04-26 16:06 | 56.90649 | 23.96952 | 43 ft | 11 kts | 274° |
| 2026-04-26 16:06 | 56.90699 | 23.96841 | 43 ft | 14 kts | 355° |
| 2026-04-26 16:07 | 56.90734 | 23.96845 | 42 ft | 0 kts | 5° |
| 2026-04-26 16:09 | 56.90988 | 23.96883 | 43 ft | 75 kts | 5° |
| 2026-04-26 16:09 | 56.91732 | 23.97004 | 43 ft | 137 kts | 5° |
| 2026-04-26 16:09 | 56.92800 | 23.97143 | 363 ft | 156 kts | 359° |
| 2026-04-26 16:10 | 56.93868 | 23.97320 | 1155 ft | 152 kts | 1° |
| 2026-04-26 16:10 | 56.94913 | 23.97504 | 1923 ft | 150 kts | 360° |
| 2026-04-26 16:10 | 56.95952 | 23.97678 | 2591 ft | 150 kts | 358° |
| 2026-04-26 16:10 | 56.96985 | 23.97853 | 3343 ft | 147 kts | 356° |
| 2026-04-26 16:11 | 56.98065 | 23.98030 | 3745 ft | 165 kts | 358° |
| 2026-04-26 16:11 | 56.99282 | 23.98215 | 4092 ft | 186 kts | 358° |
| 2026-04-26 16:11 | 57.00632 | 23.98425 | 4518 ft | 204 kts | 359° |
| 2026-04-26 16:11 | 57.02121 | 23.98664 | 5033 ft | 225 kts | 360° |
| 2026-04-26 16:12 | 57.03713 | 23.98929 | 5722 ft | 234 kts | 0° |
| 2026-04-26 16:12 | 57.05335 | 23.99145 | 5919 ft | 231 kts | 353° |
| 2026-04-26 16:12 | 57.07719 | 23.95842 | 5974 ft | 231 kts | 301° |
| 2026-04-26 16:13 | 57.08411 | 23.93171 | 5972 ft | 232 kts | 300° |
| 2026-04-26 16:13 | 57.09102 | 23.90485 | 5973 ft | 233 kts | 300° |
| 2026-04-26 16:13 | 57.09794 | 23.87789 | 5971 ft | 233 kts | 300° |
| 2026-04-26 16:13 | 57.10495 | 23.85060 | 5976 ft | 233 kts | 300° |
| 2026-04-26 16:14 | 57.11049 | 23.82241 | 5974 ft | 240 kts | 285° |
| 2026-04-26 16:14 | 57.10980 | 23.79117 | 5973 ft | 253 kts | 264° |
| 2026-04-26 16:14 | 57.10017 | 23.72831 | 5980 ft | 256 kts | 262° |
| 2026-04-26 16:15 | 57.09527 | 23.69691 | 5983 ft | 255 kts | 262° |
| 2026-04-26 16:15 | 57.08888 | 23.66611 | 5973 ft | 264 kts | 249° |
| 2026-04-26 16:15 | 57.07731 | 23.63883 | 6136 ft | 284 kts | 230° |
| 2026-04-26 16:16 | 57.04613 | 23.59315 | 8019 ft | 288 kts | 226° |
| 2026-04-26 16:16 | 57.03036 | 23.56978 | 8863 ft | 294 kts | 226° |
| 2026-04-26 16:16 | 57.01435 | 23.54593 | 9700 ft | 299 kts | 226° |
| 2026-04-26 16:16 | 56.99801 | 23.52167 | 10374 ft | 311 kts | 225° |
| 2026-04-26 16:17 | 56.98059 | 23.49589 | 10741 ft | 332 kts | 224° |
| 2026-04-26 16:17 | 56.96213 | 23.46948 | 11446 ft | 339 kts | 223° |
| 2026-04-26 16:17 | 56.94323 | 23.44310 | 12226 ft | 343 kts | 223° |
| 2026-04-26 16:17 | 56.92410 | 23.41665 | 12980 ft | 346 kts | 223° |
| 2026-04-26 16:18 | 56.90477 | 23.38997 | 13698 ft | 350 kts | 222° |
| 2026-04-26 16:18 | 56.86556 | 23.33572 | 15074 ft | 357 kts | 223° |
| 2026-04-26 16:19 | 56.82563 | 23.28013 | 16371 ft | 364 kts | 223° |
| 2026-04-26 16:19 | 56.80712 | 23.24882 | 16982 ft | 362 kts | 234° |
| 2026-04-26 16:19 | 56.78462 | 23.18560 | 17973 ft | 356 kts | 252° |
| 2026-04-26 16:20 | 56.77505 | 23.12838 | 18775 ft | 351 kts | 266° |
| 2026-04-26 16:20 | 56.76744 | 23.04011 | 19960 ft | 355 kts | 268° |
| 2026-04-26 16:20 | 56.76352 | 22.99523 | 20549 ft | 358 kts | 269° |
| 2026-04-26 16:21 | 56.75955 | 22.95039 | 21132 ft | 360 kts | 269° |
| 2026-04-26 16:21 | 56.75548 | 22.90521 | 21693 ft | 362 kts | 270° |
| 2026-04-26 16:21 | 56.75139 | 22.85975 | 22260 ft | 364 kts | 270° |
| 2026-04-26 16:21 | 56.74733 | 22.81403 | 22802 ft | 366 kts | 271° |
| 2026-04-26 16:22 | 56.74353 | 22.76808 | 23343 ft | 368 kts | 272° |
| 2026-04-26 16:22 | 56.73996 | 22.72183 | 23858 ft | 370 kts | 273° |
| 2026-04-26 16:22 | 56.73646 | 22.67537 | 24367 ft | 371 kts | 274° |
| 2026-04-26 16:22 | 56.73291 | 22.62864 | 24835 ft | 374 kts | 274° |
| 2026-04-26 16:23 | 56.72927 | 22.58162 | 25314 ft | 376 kts | 274° |
| 2026-04-26 16:23 | 56.72556 | 22.53435 | 25749 ft | 378 kts | 274° |
| 2026-04-26 16:23 | 56.72178 | 22.48675 | 26179 ft | 381 kts | 274° |
| 2026-04-26 16:23 | 56.71778 | 22.43886 | 26605 ft | 385 kts | 273° |
| 2026-04-26 16:24 | 56.71316 | 22.39074 | 27006 ft | 388 kts | 272° |
| 2026-04-26 16:24 | 56.70808 | 22.34234 | 27392 ft | 391 kts | 272° |
| 2026-04-26 16:24 | 56.70279 | 22.29364 | 27771 ft | 393 kts | 271° |
| 2026-04-26 16:24 | 56.69743 | 22.24471 | 28145 ft | 395 kts | 272° |
| 2026-04-26 16:25 | 56.69209 | 22.19560 | 28512 ft | 397 kts | 272° |
| 2026-04-26 16:25 | 56.68678 | 22.14614 | 28867 ft | 399 kts | 272° |
| 2026-04-26 16:25 | 56.68152 | 22.09651 | 29213 ft | 401 kts | 272° |
| 2026-04-26 16:25 | 56.67628 | 22.04664 | 29546 ft | 402 kts | 272° |
| 2026-04-26 16:26 | 56.67101 | 21.99665 | 29874 ft | 404 kts | 272° |
| 2026-04-26 16:26 | 56.66748 | 21.96335 | 30082 ft | 405 kts | 272° |
| 2026-04-26 16:26 | 56.66025 | 21.89595 | 30510 ft | 407 kts | 272° |
| 2026-04-26 16:26 | 56.65478 | 21.84520 | 30771 ft | 410 kts | 272° |
| 2026-04-26 16:27 | 56.64927 | 21.79418 | 31012 ft | 413 kts | 271° |
| 2026-04-26 16:27 | 56.64367 | 21.74281 | 31270 ft | 415 kts | 271° |
| 2026-04-26 16:27 | 56.63801 | 21.69122 | 31505 ft | 418 kts | 271° |
| 2026-04-26 16:27 | 56.63229 | 21.63940 | 31766 ft | 419 kts | 270° |
| 2026-04-26 16:28 | 56.62652 | 21.58740 | 32077 ft | 420 kts | 270° |
| 2026-04-26 16:28 | 56.62075 | 21.53546 | 32384 ft | 420 kts | 270° |
| 2026-04-26 16:28 | 56.61495 | 21.48341 | 32692 ft | 421 kts | 269° |
| 2026-04-26 16:28 | 56.60911 | 21.43131 | 33000 ft | 421 kts | 269° |
| 2026-04-26 16:29 | 56.60328 | 21.37918 | 33307 ft | 422 kts | 269° |
| 2026-04-26 16:29 | 56.59742 | 21.32699 | 33618 ft | 422 kts | 269° |
| 2026-04-26 16:29 | 56.59150 | 21.27478 | 33950 ft | 422 kts | 268° |
| 2026-04-26 16:29 | 56.58556 | 21.22269 | 34268 ft | 422 kts | 268° |
| 2026-04-26 16:30 | 56.57960 | 21.17058 | 34540 ft | 422 kts | 268° |
| 2026-04-26 16:30 | 56.57364 | 21.11847 | 34812 ft | 422 kts | 268° |
| 2026-04-26 16:30 | 56.56768 | 21.06637 | 35111 ft | 422 kts | 267° |
| 2026-04-26 16:30 | 56.56171 | 21.01426 | 35384 ft | 422 kts | 267° |
| 2026-04-26 16:31 | 56.55766 | 20.97907 | 35554 ft | 422 kts | 267° |
| 2026-04-26 16:31 | 56.55164 | 20.92693 | 35797 ft | 422 kts | 266° |
| 2026-04-26 16:31 | 56.54559 | 20.87486 | 36040 ft | 422 kts | 266° |
| 2026-04-26 16:31 | 56.53952 | 20.82280 | 36256 ft | 423 kts | 266° |
| 2026-04-26 16:32 | 56.53340 | 20.77066 | 36456 ft | 424 kts | 266° |
| 2026-04-26 16:32 | 56.52724 | 20.71841 | 36670 ft | 424 kts | 266° |
| 2026-04-26 16:32 | 56.52106 | 20.66641 | 36934 ft | 422 kts | 265° |
| 2026-04-26 16:32 | 56.51488 | 20.61457 | 37197 ft | 420 kts | 265° |
| 2026-04-26 16:33 | 56.50872 | 20.56301 | 37462 ft | 418 kts | 265° |
| 2026-04-26 16:33 | 56.50254 | 20.51166 | 37660 ft | 418 kts | 265° |
| 2026-04-26 16:33 | 56.49637 | 20.46025 | 37826 ft | 418 kts | 265° |
| 2026-04-26 16:33 | 56.49020 | 20.40879 | 37985 ft | 418 kts | 265° |
| 2026-04-26 16:34 | 56.48401 | 20.35726 | 38111 ft | 419 kts | 265° |
| 2026-04-26 16:34 | 56.47779 | 20.30564 | 38135 ft | 420 kts | 265° |
| 2026-04-26 16:34 | 56.46528 | 20.20278 | 38134 ft | 419 kts | 264° |
| 2026-04-26 16:35 | 56.45265 | 20.09995 | 38147 ft | 419 kts | 264° |
| 2026-04-26 16:35 | 56.43991 | 19.99711 | 38153 ft | 420 kts | 264° |
| 2026-04-26 16:36 | 56.42706 | 19.89442 | 38149 ft | 418 kts | 264° |
| 2026-04-26 16:36 | 56.41412 | 19.79180 | 38156 ft | 419 kts | 264° |
| 2026-04-26 16:37 | 56.40112 | 19.68930 | 38144 ft | 418 kts | 264° |
| 2026-04-26 16:37 | 56.38809 | 19.58702 | 38149 ft | 418 kts | 264° |
| 2026-04-26 16:38 | 56.37504 | 19.48504 | 38149 ft | 417 kts | 264° |
| 2026-04-26 16:38 | 56.36188 | 19.38319 | 38153 ft | 417 kts | 264° |
| 2026-04-26 16:39 | 56.34860 | 19.28132 | 38163 ft | 417 kts | 264° |
| 2026-04-26 16:39 | 56.33520 | 19.17967 | 38160 ft | 417 kts | 264° |
| 2026-04-26 16:40 | 56.32176 | 19.07809 | 38163 ft | 416 kts | 264° |
| 2026-04-26 16:40 | 56.30829 | 18.97669 | 38172 ft | 416 kts | 264° |
| 2026-04-26 16:41 | 56.29483 | 18.87558 | 38174 ft | 414 kts | 265° |
| 2026-04-26 16:41 | 56.28323 | 18.77444 | 38179 ft | 411 kts | 267° |
| 2026-04-26 16:42 | 56.27265 | 18.67356 | 38181 ft | 410 kts | 267° |
| 2026-04-26 16:42 | 56.26179 | 18.57303 | 38192 ft | 409 kts | 266° |
| 2026-04-26 16:43 | 56.25044 | 18.47286 | 38195 ft | 408 kts | 266° |
| 2026-04-26 16:43 | 56.23889 | 18.37315 | 38194 ft | 407 kts | 266° |
| 2026-04-26 16:44 | 56.22646 | 18.27388 | 38197 ft | 412 kts | 260° |
| 2026-04-26 16:44 | 56.20724 | 18.17656 | 38195 ft | 413 kts | 259° |
| 2026-04-26 16:45 | 56.18776 | 18.07946 | 38198 ft | 413 kts | 259° |
| 2026-04-26 16:45 | 56.16824 | 17.98251 | 38197 ft | 413 kts | 259° |
| 2026-04-26 16:46 | 56.14871 | 17.88581 | 38199 ft | 412 kts | 259° |
| 2026-04-26 16:46 | 56.12912 | 17.78922 | 38200 ft | 412 kts | 258° |
| 2026-04-26 16:47 | 56.10946 | 17.69278 | 38196 ft | 412 kts | 258° |
| 2026-04-26 16:47 | 56.08969 | 17.59649 | 38195 ft | 412 kts | 258° |
| 2026-04-26 16:48 | 56.06989 | 17.50037 | 38196 ft | 411 kts | 258° |
| 2026-04-26 16:48 | 56.04996 | 17.40448 | 38201 ft | 411 kts | 258° |
| 2026-04-26 16:49 | 56.03036 | 17.31043 | 38205 ft | 411 kts | 258° |
| 2026-04-26 16:49 | 56.01031 | 17.21451 | 38208 ft | 411 kts | 258° |
| 2026-04-26 16:50 | 55.99027 | 17.11902 | 38206 ft | 410 kts | 258° |
| 2026-04-26 16:50 | 55.97024 | 17.02396 | 38218 ft | 408 kts | 258° |
| 2026-04-26 16:51 | 55.95019 | 16.92941 | 38217 ft | 406 kts | 258° |
| 2026-04-26 16:51 | 55.93020 | 16.83535 | 38222 ft | 405 kts | 258° |
| 2026-04-26 16:52 | 55.91354 | 16.75743 | 38213 ft | 404 kts | 257° |
| 2026-04-26 16:52 | 55.89001 | 16.64820 | 38213 ft | 403 kts | 257° |
| 2026-04-26 16:53 | 55.86989 | 16.55516 | 38215 ft | 402 kts | 257° |
| 2026-04-26 16:53 | 55.84974 | 16.46231 | 38213 ft | 401 kts | 257° |
| 2026-04-26 16:54 | 55.82957 | 16.36971 | 38218 ft | 401 kts | 257° |
| 2026-04-26 16:54 | 55.80933 | 16.27726 | 38219 ft | 401 kts | 257° |
| 2026-04-26 16:55 | 55.78905 | 16.18501 | 38212 ft | 401 kts | 257° |
| 2026-04-26 16:55 | 55.76876 | 16.09286 | 38212 ft | 400 kts | 257° |
| 2026-04-26 16:56 | 55.73796 | 15.95446 | 38211 ft | 400 kts | 257° |
| 2026-04-26 16:57 | 55.71751 | 15.86265 | 38211 ft | 400 kts | 257° |
| 2026-04-26 16:57 | 55.68659 | 15.72500 | 38220 ft | 400 kts | 257° |
| 2026-04-26 16:58 | 55.66943 | 15.64888 | 38220 ft | 400 kts | 256° |
| 2026-04-26 16:59 | 55.63468 | 15.49615 | 38231 ft | 401 kts | 256° |
| 2026-04-26 17:00 | 55.59296 | 15.31355 | 38233 ft | 400 kts | 256° |
| 2026-04-26 17:00 | 55.56151 | 15.17696 | 38246 ft | 400 kts | 255° |
| 2026-04-26 17:01 | 55.54042 | 15.08607 | 38251 ft | 400 kts | 255° |
| 2026-04-26 17:01 | 55.51930 | 14.99525 | 38256 ft | 400 kts | 255° |
| 2026-04-26 17:02 | 55.49819 | 14.90460 | 38257 ft | 400 kts | 255° |
| 2026-04-26 17:02 | 55.47696 | 14.81407 | 38258 ft | 399 kts | 255° |
| 2026-04-26 17:03 | 55.45567 | 14.72367 | 38257 ft | 399 kts | 255° |
| 2026-04-26 17:03 | 55.43435 | 14.63342 | 38260 ft | 399 kts | 254° |
| 2026-04-26 17:04 | 55.41293 | 14.54325 | 38260 ft | 399 kts | 254° |
| 2026-04-26 17:04 | 55.39141 | 14.45319 | 38258 ft | 399 kts | 254° |
| 2026-04-26 17:05 | 55.36982 | 14.36321 | 38258 ft | 400 kts | 254° |
| 2026-04-26 17:05 | 55.34815 | 14.27325 | 38256 ft | 400 kts | 254° |
| 2026-04-26 17:06 | 55.32644 | 14.18338 | 38259 ft | 399 kts | 253° |
| 2026-04-26 17:06 | 55.30469 | 14.09360 | 38257 ft | 400 kts | 253° |
| 2026-04-26 17:07 | 55.28282 | 14.00391 | 38258 ft | 400 kts | 253° |
| 2026-04-26 17:07 | 55.26445 | 13.92883 | 38259 ft | 400 kts | 253° |
| 2026-04-26 17:08 | 55.24249 | 13.83920 | 38265 ft | 400 kts | 253° |
| 2026-04-26 17:08 | 55.22043 | 13.74961 | 38269 ft | 400 kts | 253° |
| 2026-04-26 17:09 | 55.20202 | 13.67530 | 38269 ft | 401 kts | 253° |
| 2026-04-26 17:09 | 55.17609 | 13.57071 | 38273 ft | 401 kts | 252° |
| 2026-04-26 17:10 | 55.15216 | 13.48248 | 38278 ft | 404 kts | 248° |
| 2026-04-26 17:10 | 55.12454 | 13.39686 | 38278 ft | 405 kts | 246° |
| 2026-04-26 17:11 | 55.09631 | 13.31182 | 38278 ft | 404 kts | 246° |
| 2026-04-26 17:11 | 55.06819 | 13.22670 | 38275 ft | 404 kts | 246° |
| 2026-04-26 17:12 | 55.02621 | 13.09908 | 38281 ft | 404 kts | 246° |
| 2026-04-26 17:13 | 54.98423 | 12.97170 | 38288 ft | 404 kts | 246° |
| 2026-04-26 17:14 | 54.94210 | 12.84460 | 38295 ft | 404 kts | 246° |
| 2026-04-26 17:14 | 54.89969 | 12.71786 | 38295 ft | 404 kts | 245° |
| 2026-04-26 17:15 | 54.87153 | 12.63395 | 37696 ft | 400 kts | 245° |
| 2026-04-26 17:15 | 54.85752 | 12.59226 | 37102 ft | 399 kts | 245° |
| 2026-04-26 17:15 | 54.84351 | 12.55073 | 36516 ft | 398 kts | 245° |
| 2026-04-26 17:16 | 54.82951 | 12.50933 | 35893 ft | 398 kts | 245° |
| 2026-04-26 17:16 | 54.81549 | 12.46788 | 35186 ft | 399 kts | 245° |
| 2026-04-26 17:16 | 54.80141 | 12.42623 | 34430 ft | 402 kts | 245° |
| 2026-04-26 17:16 | 54.78726 | 12.38435 | 33673 ft | 403 kts | 245° |
| 2026-04-26 17:17 | 54.77302 | 12.34239 | 32923 ft | 405 kts | 245° |
| 2026-04-26 17:17 | 54.75869 | 12.30036 | 32133 ft | 406 kts | 245° |
| 2026-04-26 17:17 | 54.74428 | 12.25816 | 31309 ft | 408 kts | 245° |
| 2026-04-26 17:17 | 54.72963 | 12.21527 | 30436 ft | 410 kts | 245° |
| 2026-04-26 17:18 | 54.71507 | 12.17273 | 29528 ft | 412 kts | 245° |
| 2026-04-26 17:18 | 54.70039 | 12.12992 | 28578 ft | 415 kts | 245° |
| 2026-04-26 17:18 | 54.68563 | 12.08695 | 27706 ft | 416 kts | 245° |
| 2026-04-26 17:18 | 54.67089 | 12.04419 | 27014 ft | 412 kts | 245° |
| 2026-04-26 17:19 | 54.64176 | 11.96000 | 25648 ft | 405 kts | 244° |
| 2026-04-26 17:19 | 54.62737 | 11.91847 | 24976 ft | 401 kts | 244° |
| 2026-04-26 17:19 | 54.61314 | 11.87733 | 24322 ft | 398 kts | 244° |
| 2026-04-26 17:20 | 54.59903 | 11.83653 | 23656 ft | 395 kts | 244° |
| 2026-04-26 17:20 | 54.58973 | 11.80966 | 23415 ft | 394 kts | 244° |
| 2026-04-26 17:20 | 54.57091 | 11.75536 | 23271 ft | 394 kts | 244° |
| 2026-04-26 17:20 | 54.55610 | 11.71538 | 23265 ft | 399 kts | 237° |
| 2026-04-26 17:21 | 54.53796 | 11.67936 | 22744 ft | 397 kts | 233° |
| 2026-04-26 17:21 | 54.51940 | 11.64432 | 22121 ft | 395 kts | 233° |
| 2026-04-26 17:21 | 54.50076 | 11.60980 | 21528 ft | 392 kts | 232° |
| 2026-04-26 17:21 | 54.48216 | 11.57564 | 20944 ft | 390 kts | 233° |
| 2026-04-26 17:22 | 54.46369 | 11.54165 | 20377 ft | 387 kts | 233° |
| 2026-04-26 17:22 | 54.44537 | 11.50788 | 19846 ft | 385 kts | 233° |
| 2026-04-26 17:22 | 54.42724 | 11.47442 | 19279 ft | 381 kts | 233° |
| 2026-04-26 17:22 | 54.40926 | 11.44107 | 18720 ft | 379 kts | 233° |
| 2026-04-26 17:23 | 54.39143 | 11.40796 | 18159 ft | 377 kts | 233° |
| 2026-04-26 17:23 | 54.37369 | 11.37508 | 17614 ft | 374 kts | 233° |
| 2026-04-26 17:23 | 54.35602 | 11.34242 | 17063 ft | 372 kts | 233° |
| 2026-04-26 17:23 | 54.33846 | 11.31001 | 16518 ft | 370 kts | 233° |
| 2026-04-26 17:24 | 54.32100 | 11.27787 | 15994 ft | 367 kts | 233° |
| 2026-04-26 17:24 | 54.30366 | 11.24589 | 15463 ft | 365 kts | 233° |
| 2026-04-26 17:24 | 54.28647 | 11.21423 | 14929 ft | 363 kts | 232° |
| 2026-04-26 17:24 | 54.26930 | 11.18272 | 14392 ft | 360 kts | 232° |
| 2026-04-26 17:25 | 54.25224 | 11.15149 | 13858 ft | 358 kts | 232° |
| 2026-04-26 17:25 | 54.23527 | 11.12049 | 13325 ft | 356 kts | 232° |
| 2026-04-26 17:25 | 54.21840 | 11.08966 | 12788 ft | 354 kts | 232° |
| 2026-04-26 17:25 | 54.20163 | 11.05905 | 12227 ft | 351 kts | 232° |
| 2026-04-26 17:26 | 54.18500 | 11.02871 | 11674 ft | 349 kts | 232° |
| 2026-04-26 17:26 | 54.16843 | 10.99855 | 11345 ft | 348 kts | 231° |
| 2026-04-26 17:26 | 54.15193 | 10.96853 | 11146 ft | 345 kts | 231° |
| 2026-04-26 17:26 | 54.13561 | 10.93887 | 10584 ft | 342 kts | 231° |
| 2026-04-26 17:27 | 54.11939 | 10.90947 | 10042 ft | 338 kts | 230° |
| 2026-04-26 17:27 | 54.10351 | 10.88075 | 9825 ft | 325 kts | 230° |
| 2026-04-26 17:27 | 54.08834 | 10.85336 | 9698 ft | 310 kts | 230° |
| 2026-04-26 17:27 | 54.07386 | 10.82725 | 9567 ft | 297 kts | 230° |
| 2026-04-26 17:28 | 54.05997 | 10.80218 | 9444 ft | 285 kts | 230° |
| 2026-04-26 17:28 | 54.04661 | 10.77813 | 9207 ft | 276 kts | 230° |
| 2026-04-26 17:28 | 54.03349 | 10.75446 | 8867 ft | 273 kts | 230° |
| 2026-04-26 17:28 | 54.02051 | 10.73100 | 8506 ft | 271 kts | 229° |
| 2026-04-26 17:29 | 54.00765 | 10.70778 | 8132 ft | 268 kts | 229° |
| 2026-04-26 17:29 | 53.99902 | 10.69221 | 7871 ft | 267 kts | 229° |
| 2026-04-26 17:29 | 53.98219 | 10.66192 | 7360 ft | 265 kts | 229° |
| 2026-04-26 17:29 | 53.96955 | 10.63924 | 6989 ft | 264 kts | 229° |
| 2026-04-26 17:30 | 53.95702 | 10.61675 | 6625 ft | 261 kts | 228° |
| 2026-04-26 17:30 | 53.94461 | 10.59454 | 6231 ft | 258 kts | 228° |
| 2026-04-26 17:30 | 53.93227 | 10.57245 | 5841 ft | 257 kts | 228° |
| 2026-04-26 17:30 | 53.92003 | 10.55055 | 5445 ft | 255 kts | 228° |
| 2026-04-26 17:31 | 53.90786 | 10.52885 | 5073 ft | 253 kts | 228° |
| 2026-04-26 17:31 | 53.89577 | 10.50733 | 5003 ft | 247 kts | 227° |
| 2026-04-26 17:31 | 53.88418 | 10.48675 | 5013 ft | 245 kts | 227° |
| 2026-04-26 17:31 | 53.87213 | 10.46526 | 5012 ft | 255 kts | 227° |
| 2026-04-26 17:32 | 53.85985 | 10.44340 | 5016 ft | 256 kts | 227° |
| 2026-04-26 17:32 | 53.84758 | 10.42159 | 5013 ft | 256 kts | 227° |
| 2026-04-26 17:32 | 53.83448 | 10.40105 | 5013 ft | 257 kts | 223° |
| 2026-04-26 17:32 | 53.82195 | 10.37963 | 5017 ft | 256 kts | 230° |
| 2026-04-26 17:33 | 53.81636 | 10.36851 | 5023 ft | 256 kts | 231° |
| 2026-04-26 17:33 | 53.80498 | 10.34483 | 5014 ft | 256 kts | 232° |
| 2026-04-26 17:33 | 53.79372 | 10.32150 | 4798 ft | 256 kts | 231° |
| 2026-04-26 17:34 | 53.77123 | 10.27536 | 4156 ft | 253 kts | 231° |
| 2026-04-26 17:34 | 53.76000 | 10.25238 | 3820 ft | 253 kts | 231° |
| 2026-04-26 17:34 | 53.74887 | 10.22959 | 3475 ft | 249 kts | 231° |
| 2026-04-26 17:34 | 53.73795 | 10.20724 | 3155 ft | 244 kts | 231° |
| 2026-04-26 17:35 | 53.72727 | 10.18544 | 2836 ft | 235 kts | 230° |
| 2026-04-26 17:35 | 53.71711 | 10.16469 | 2523 ft | 224 kts | 231° |
| 2026-04-26 17:35 | 53.70738 | 10.14483 | 2232 ft | 214 kts | 232° |
| 2026-04-26 17:35 | 53.69811 | 10.12593 | 1966 ft | 204 kts | 232° |
| 2026-04-26 17:36 | 53.68925 | 10.10794 | 1731 ft | 193 kts | 232° |
| 2026-04-26 17:36 | 53.68092 | 10.09098 | 1457 ft | 183 kts | 233° |
| 2026-04-26 17:36 | 53.67319 | 10.07528 | 1227 ft | 163 kts | 234° |
| 2026-04-26 17:36 | 53.66631 | 10.06131 | 1011 ft | 147 kts | 234° |
| 2026-04-26 17:37 | 53.66000 | 10.04846 | 818 ft | 139 kts | 234° |
| 2026-04-26 17:37 | 53.65376 | 10.03567 | 643 ft | 140 kts | 234° |
| 2026-04-26 17:37 | 53.64755 | 10.02329 | 486 ft | 137 kts | 234° |
| 2026-04-26 17:38 | 53.63482 | 9.99708 | 329 ft | 169 kts | 233° |
| 2026-04-26 17:38 | 53.62669 | 9.97954 | 732 ft | 210 kts | 236° |
| 2026-04-26 17:38 | 53.61734 | 9.95975 | 1621 ft | 212 kts | 233° |
| 2026-04-26 17:38 | 53.60790 | 9.94082 | 2676 ft | 210 kts | 232° |
| 2026-04-26 17:39 | 53.59868 | 9.92171 | 3562 ft | 214 kts | 232° |
| 2026-04-26 17:39 | 53.58868 | 9.90329 | 3893 ft | 213 kts | 215° |
| 2026-04-26 17:39 | 53.57487 | 9.89555 | 3991 ft | 213 kts | 180° |
| 2026-04-26 17:39 | 53.56026 | 9.89968 | 4017 ft | 214 kts | 166° |
| 2026-04-26 17:40 | 53.54592 | 9.90655 | 4019 ft | 214 kts | 165° |
| 2026-04-26 17:40 | 53.54108 | 9.90899 | 4017 ft | 215 kts | 165° |
| 2026-04-26 17:40 | 53.51737 | 9.92119 | 4007 ft | 215 kts | 164° |
| 2026-04-26 17:40 | 53.50311 | 9.92856 | 4022 ft | 215 kts | 164° |
| 2026-04-26 17:41 | 53.48884 | 9.93596 | 4023 ft | 215 kts | 164° |
| 2026-04-26 17:41 | 53.47456 | 9.94336 | 4017 ft | 215 kts | 164° |
| 2026-04-26 17:41 | 53.46011 | 9.95084 | 4018 ft | 215 kts | 164° |
| 2026-04-26 17:41 | 53.44608 | 9.95810 | 3815 ft | 213 kts | 164° |
| 2026-04-26 17:42 | 53.43651 | 9.96300 | 3608 ft | 212 kts | 164° |
| 2026-04-26 17:42 | 53.42238 | 9.97019 | 3316 ft | 212 kts | 164° |
| 2026-04-26 17:42 | 53.40825 | 9.97723 | 3025 ft | 211 kts | 164° |
| 2026-04-26 17:42 | 53.39426 | 9.98407 | 2793 ft | 207 kts | 163° |
| 2026-04-26 17:43 | 53.38203 | 9.99597 | 2563 ft | 204 kts | 129° |
| 2026-04-26 17:43 | 53.37688 | 10.01685 | 2498 ft | 190 kts | 89° |
| 2026-04-26 17:43 | 53.38068 | 10.03692 | 2513 ft | 180 kts | 47° |
| 2026-04-26 17:43 | 53.39098 | 10.04755 | 2526 ft | 175 kts | 13° |
| 2026-04-26 17:44 | 53.40294 | 10.05124 | 2536 ft | 175 kts | 6° |
| 2026-04-26 17:44 | 53.41575 | 10.05372 | 2555 ft | 198 kts | 5° |
| 2026-04-26 17:44 | 53.42915 | 10.05605 | 2519 ft | 190 kts | 4° |
| 2026-04-26 17:44 | 53.44211 | 10.05826 | 2511 ft | 186 kts | 4° |
| 2026-04-26 17:45 | 53.45494 | 10.06046 | 2512 ft | 185 kts | 4° |
| 2026-04-26 17:45 | 53.46772 | 10.06268 | 2512 ft | 185 kts | 4° |
| 2026-04-26 17:45 | 53.48051 | 10.06492 | 2510 ft | 185 kts | 5° |
| 2026-04-26 17:45 | 53.49324 | 10.06716 | 2520 ft | 184 kts | 4° |
| 2026-04-26 17:46 | 53.50611 | 10.06939 | 2547 ft | 190 kts | 4° |
| 2026-04-26 17:46 | 53.51940 | 10.07170 | 2548 ft | 193 kts | 4° |
| 2026-04-26 17:46 | 53.53285 | 10.07402 | 2527 ft | 195 kts | 4° |
| 2026-04-26 17:46 | 53.54618 | 10.07233 | 2526 ft | 197 kts | 336° |
| 2026-04-26 17:47 | 53.55816 | 10.06081 | 2215 ft | 200 kts | 326° |
| 2026-04-26 17:47 | 53.56600 | 10.05229 | 1946 ft | 196 kts | 328° |
| 2026-04-26 17:47 | 53.58154 | 10.03885 | 1504 ft | 183 kts | 331° |
| 2026-04-26 17:47 | 53.59240 | 10.02906 | 1165 ft | 169 kts | 330° |
| 2026-04-26 17:48 | 53.60221 | 10.02056 | 842 ft | 153 kts | 333° |
| 2026-04-26 17:48 | 53.61130 | 10.01241 | 538 ft | 142 kts | 333° |
| 2026-04-26 17:48 | 53.61984 | 10.00512 | 302 ft | 133 kts | 332° |
| 2026-04-26 17:48 | 53.62784 | 9.99832 | 111 ft | 126 kts | 330° |
| 2026-04-26 17:49 | 53.63522 | 9.99173 | 48 ft | 103 kts | 333° |
| 2026-04-26 17:49 | 53.63998 | 9.98763 | 50 ft | 55 kts | 333° |
| 2026-04-26 17:49 | 53.64323 | 9.98484 | 50 ft | 49 kts | 332° |
| 2026-04-26 17:49 | 53.64596 | 9.98366 | 57 ft | 31 kts | 4° |
| 2026-04-26 17:50 | 53.64689 | 9.98500 | 51 ft | 15 kts | 126° |
| 2026-04-26 17:50 | 53.64604 | 9.98582 | 52 ft | 14 kts | 153° |
| 2026-04-26 17:50 | 53.64508 | 9.98667 | 48 ft | 18 kts | 152° |
| 2026-04-26 17:50 | 53.64380 | 9.98777 | 51 ft | 23 kts | 153° |
| 2026-04-26 17:51 | 53.64222 | 9.98912 | 49 ft | 28 kts | 153° |
| 2026-04-26 17:51 | 53.64047 | 9.99064 | 48 ft | 24 kts | 153° |
| 2026-04-26 17:51 | 53.63893 | 9.99197 | 47 ft | 26 kts | 153° |
| 2026-04-26 17:51 | 53.63745 | 9.99390 | 49 ft | 26 kts | 130° |
| 2026-04-26 17:52 | 53.63655 | 9.99597 | 49 ft | 15 kts | 125° |
| 2026-04-26 17:52 | 53.63612 | 9.99699 | 48 ft | 3 kts | 126° |
| 2026-04-26 17:52 | 53.63611 | 9.99701 | 49 ft | 0 kts | 126° |
| 2026-04-26 17:53 | 53.63598 | 9.99730 | 50 ft | 7 kts | 126° |
| 2026-04-26 17:53 | 53.63557 | 9.99826 | 48 ft | 14 kts | 125° |
| 2026-04-26 17:53 | 53.63488 | 9.99988 | 50 ft | 20 kts | 127° |
| 2026-04-26 17:54 | 53.63413 | 10.00310 | 48 ft | 4 kts | 84° |
| 2026-04-26 17:54 | 53.63414 | 10.00341 | 45 ft | 2 kts | 85° |
| 2026-04-26 17:54 | 53.63415 | 10.00359 | 48 ft | 0 kts | 85° |
| 2026-04-26 17:54 | 53.63415 | 10.00360 | 48 ft | 0 kts | 85° |